Elk City, OK

7:15 PM CDT on August 27, 2015 (GMT -0500)
Clinton-Sherman | | Change Station
CLOSE
Current Station
Airport
Location: Clinton-Sherman,
Elevation: 1923 ft
Nearby Weather Stations

Elev 1923 ft 35.34 °N, 99.20 °W | Updated 22 minutes ago

Partly Cloudy
Partly Cloudy
94 °F
Feels Like 92 °F
N
15
Wind Variable Wind from SSE

Today
High -- | Low -- °F
--% Chance of Precip.
Yesterday
High -- | Low -- °F
Precip. -- in
7:06 AM 8:11 PM
Waxing Gibbous, 95% visible
Pressure 29.89 in
Visibility 10.0 miles
Clouds Clear
Heat Index 92 °F
Dew Point 54 °F
Humidity 26%
Rainfall 0.00 in
Snow Depth Not available.
UV 1 out of 12
Pollen 9.50 out of 12
Air Quality Not available.
Flu Activity Not available.
METAR KCSM 272353Z 16013KT 10SM CLR 34/12 A2997 RMK AO2 SLP120 T03440122 10372 20333 56015
Pressure 29.89 in
Visibility 10.0 miles
Clouds Clear
Heat Index 92 °F
Dew Point 54 °F
Humidity 26%
Rainfall 0.00 in
Snow Depth Not available.
UV 1 out of 12
Pollen 9.50 out of 12
Air Quality Not available.
Flu Activity Not available.
METAR KCSM 272353Z 16013KT 10SM CLR 34/12 A2997 RMK AO2 SLP120 T03440122 10372 20333 56015

10-Day Weather Forecast

×

Almanac

Astronomy

Aug. 27, 2015 Rise Set
Actual Time
Civil Twilight
Nautical Twilight
Astronomical Twilight
Moon
Length of Visible Light
Length of Day
Tomorrow will be .
, % of the Moon is Illuminated

Today's Extremes

State Highs State Lows

Community

WunderPhotos

Upload Photos

1,850,272 photos uploaded!

WunderBlogs® & News

Nearby

Air Quality

  Air Quality AQ Index Pollutant
Not available.

Snow Depth

Station Depth Elevation

Earthquake Activity

City Distance Mag. Time & Date
Minimum magnitude displayed is 2.5.

Coastal Water Temperatures

Place Temperature

Stations

Nearby Weather Stations

Station Location Temp. Windchill Dew Point Humidity Wind Precip. Elev Updated Type